Time;durP1;ratioP1;P1;durP2;ratioP2;P2;SDS_P1;SDS_P2;PMS_P1;PMS_P2;Temp;Humidity;BMP_temperature;BMP_pressure;BME280_temperature;BME280_humidity;BME280_pressure;Samples;Min_cycle;Max_cycle;Signal;HPM_P1;HPM_P2
2021/05/14 00:00:28;;;;;;;14.98;13.13;;;12.60;99.90;;;;;;4993593;28;20538;-79
2021/05/14 00:02:55;;;;;;;14.90;12.38;;;12.30;99.90;;;;;;4996664;28;20228;-79
2021/05/14 00:05:21;;;;;;;22.45;13.15;;;12.30;99.90;;;;;;4996878;28;20169;-79
2021/05/14 00:07:50;;;;;;;16.02;13.80;;;12.30;99.90;;;;;;4996285;28;20185;-78
2021/05/14 00:10:20;;;;;;;20.08;14.80;;;12.30;99.90;;;;;;4996756;28;20169;-78
2021/05/14 00:12:49;;;;;;;14.25;12.82;;;12.40;99.90;;;;;;4996648;28;20165;-79
2021/05/14 00:15:16;;;;;;;14.52;13.02;;;12.50;99.90;;;;;;4996922;28;20216;-79
2021/05/14 00:17:42;;;;;;;16.95;13.75;;;12.50;99.90;;;;;;4996765;28;20232;-78
2021/05/14 00:20:09;;;;;;;14.80;13.35;;;12.50;99.90;;;;;;4995311;28;20204;-78
2021/05/14 00:22:34;;;;;;;15.43;13.18;;;12.50;99.90;;;;;;4997033;28;20260;-78
2021/05/14 00:25:00;;;;;;;14.35;12.63;;;12.50;99.90;;;;;;4996728;28;20257;-78
2021/05/14 00:27:26;;;;;;;16.92;13.48;;;12.50;99.90;;;;;;4996460;28;20185;-78
2021/05/14 00:29:51;;;;;;;17.10;13.13;;;12.40;99.90;;;;;;4995251;28;20172;-79
2021/05/14 00:32:17;;;;;;;18.40;14.18;;;12.20;99.90;;;;;;4996346;28;20165;-79
2021/05/14 00:34:43;;;;;;;16.50;13.07;;;12.20;99.90;;;;;;4996478;28;20169;-79
2021/05/14 00:37:08;;;;;;;20.98;13.65;;;12.20;99.90;;;;;;4996259;28;20216;-79
2021/05/14 00:39:34;;;;;;;20.13;13.63;;;12.30;99.90;;;;;;4994789;28;20192;-79
2021/05/14 00:42:00;;;;;;;21.25;15.45;;;12.40;99.90;;;;;;4996249;28;20542;-79
2021/05/14 00:44:36;;;;;;;16.90;14.27;;;12.40;99.90;;;;;;4994715;28;20177;-80
2021/05/14 00:47:08;;;;;;;17.65;13.70;;;12.30;99.90;;;;;;4996237;28;20292;-79
2021/05/14 00:49:39;;;;;;;20.65;14.35;;;12.20;99.90;;;;;;4994894;28;20177;-80
2021/05/14 00:52:05;;;;;;;18.05;14.02;;;12.10;99.90;;;;;;4995968;28;20644;-80
2021/05/14 00:54:31;;;;;;;23.27;15.10;;;12.00;99.90;;;;;;4995786;28;20165;-79
2021/05/14 00:56:58;;;;;;;19.20;15.02;;;11.90;99.90;;;;;;4995885;28;20683;-79
2021/05/14 00:59:24;;;;;;;16.50;13.70;;;12.10;99.90;;;;;;4995724;28;20244;-79
2021/05/14 01:01:49;;;;;;;18.77;14.95;;;12.10;99.90;;;;;;4994717;28;20272;-79
2021/05/14 01:04:15;;;;;;;22.90;14.27;;;12.10;99.90;;;;;;4995914;28;20172;-79
2021/05/14 01:06:40;;;;;;;16.13;13.65;;;12.10;99.90;;;;;;4995420;28;20169;-80
2021/05/14 01:09:06;;;;;;;18.88;14.05;;;12.10;99.90;;;;;;4995663;28;20166;-79
2021/05/14 01:11:33;;;;;;;18.05;14.20;;;12.10;99.90;;;;;;4995115;28;20273;-79
2021/05/14 01:13:59;;;;;;;18.95;14.98;;;11.90;99.90;;;;;;4994783;28;20168;-79
2021/05/14 01:16:25;;;;;;;16.00;13.48;;;11.80;99.90;;;;;;4995548;28;20614;-79
2021/05/14 01:18:51;;;;;;;20.35;15.13;;;11.90;99.90;;;;;;4995195;28;20213;-79
2021/05/14 01:21:18;;;;;;;17.13;14.00;;;11.90;99.90;;;;;;4995512;28;20685;-79
2021/05/14 01:23:43;;;;;;;19.77;14.25;;;12.00;99.90;;;;;;4995526;28;20172;-79
2021/05/14 01:26:13;;;;;;;18.55;14.65;;;11.80;99.90;;;;;;4995216;28;20177;-80
2021/05/14 01:28:40;;;;;;;20.80;15.73;;;11.90;99.90;;;;;;4995277;28;20600;-80
2021/05/14 01:31:06;;;;;;;18.15;15.02;;;11.80;99.90;;;;;;4995450;28;20630;-80
2021/05/14 01:33:32;;;;;;;18.00;15.15;;;11.80;99.90;;;;;;4994870;28;20176;-79
2021/05/14 01:35:59;;;;;;;22.02;14.13;;;11.60;99.90;;;;;;5009826;28;20166;-79
2021/05/14 01:38:25;;;;;;;14.55;12.82;;;11.40;99.90;;;;;;4995043;28;20189;-81
2021/05/14 01:40:51;;;;;;;17.88;14.18;;;11.40;99.90;;;;;;4995002;28;20205;-79
2021/05/14 01:43:16;;;;;;;17.90;14.60;;;11.40;99.90;;;;;;5010238;28;20174;-80
2021/05/14 01:45:42;;;;;;;14.82;12.95;;;11.40;99.90;;;;;;4994896;28;20173;-80
2021/05/14 01:48:07;;;;;;;17.00;13.43;;;11.40;99.90;;;;;;4995014;28;20216;-79
2021/05/14 01:50:33;;;;;;;16.38;12.88;;;11.40;99.90;;;;;;4993670;28;20656;-80
2021/05/14 01:52:59;;;;;;;18.05;14.68;;;11.40;99.90;;;;;;4994627;28;20181;-79
2021/05/14 01:55:25;;;;;;;16.55;13.55;;;11.50;99.90;;;;;;4993325;28;20637;-78
2021/05/14 01:57:50;;;;;;;15.35;13.32;;;11.40;99.90;;;;;;4994520;28;20280;-78
2021/05/14 02:00:16;;;;;;;16.95;14.55;;;11.40;99.90;;;;;;4994221;28;20193;-78
2021/05/14 02:02:42;;;;;;;18.08;14.05;;;11.40;99.90;;;;;;4994787;28;20533;-78
2021/05/14 02:05:08;;;;;;;17.10;13.60;;;11.50;99.90;;;;;;4994795;28;20166;-78
2021/05/14 02:07:33;;;;;;;19.15;14.88;;;11.50;99.90;;;;;;4993106;28;20199;-78
2021/05/14 02:09:59;;;;;;;17.20;14.95;;;11.60;99.90;;;;;;4994814;28;20228;-79
2021/05/14 02:12:25;;;;;;;22.25;16.42;;;11.60;99.90;;;;;;4993183;28;20641;-79
2021/05/14 02:14:50;;;;;;;17.73;15.52;;;11.40;99.90;;;;;;4994182;28;20177;-78
2021/05/14 02:17:16;;;;;;;19.58;14.95;;;11.20;99.90;;;;;;4994485;28;20189;-78
2021/05/14 02:19:42;;;;;;;19.65;15.55;;;10.80;99.90;;;;;;4994386;28;20665;-78
2021/05/14 02:22:08;;;;;;;19.58;14.70;;;10.60;99.90;;;;;;4994584;28;20516;-78
2021/05/14 02:24:33;;;;;;;21.52;16.27;;;10.50;99.90;;;;;;4994287;28;20256;-79
2021/05/14 02:26:59;;;;;;;19.02;15.10;;;10.80;99.90;;;;;;4994126;28;20189;-78
2021/05/14 02:29:25;;;;;;;21.55;16.27;;;10.90;99.90;;;;;;4994343;28;20201;-80
2021/05/14 02:31:50;;;;;;;21.25;16.58;;;11.00;99.90;;;;;;4994147;28;20173;-78
2021/05/14 02:34:16;;;;;;;20.77;16.42;;;11.00;99.90;;;;;;4993619;28;20672;-79
2021/05/14 02:36:42;;;;;;;23.08;16.02;;;11.00;99.90;;;;;;4993633;28;20165;-79
2021/05/14 02:39:09;;;;;;;22.08;17.13;;;11.10;99.90;;;;;;4993457;28;20169;-80
2021/05/14 02:41:38;;;;;;;26.38;17.75;;;11.10;99.90;;;;;;4992684;28;20738;-79
2021/05/14 02:44:05;;;;;;;19.35;15.13;;;11.30;99.90;;;;;;4994038;28;20173;-79
2021/05/14 02:46:33;;;;;;;20.38;16.02;;;11.40;99.90;;;;;;4993768;28;20227;-79
2021/05/14 02:48:59;;;;;;;20.73;16.35;;;11.20;99.90;;;;;;4994018;28;20200;-79
2021/05/14 02:51:25;;;;;;;20.08;15.52;;;11.40;99.90;;;;;;4993975;28;20169;-79
2021/05/14 02:53:50;;;;;;;19.73;15.10;;;11.50;99.90;;;;;;4993798;28;20172;-79
2021/05/14 02:56:16;;;;;;;22.00;15.85;;;11.30;99.90;;;;;;4993976;28;21145;-80
2021/05/14 02:58:41;;;;;;;21.00;15.43;;;11.40;99.90;;;;;;4993220;28;20724;-79
2021/05/14 03:01:07;;;;;;;21.58;15.55;;;11.50;99.90;;;;;;4993563;28;20205;-80
2021/05/14 03:03:33;;;;;;;22.60;16.13;;;11.40;99.90;;;;;;4993532;28;20173;-79
2021/05/14 03:05:58;;;;;;;18.52;15.40;;;11.50;99.90;;;;;;4993325;28;20165;-78
2021/05/14 03:08:24;;;;;;;22.20;15.35;;;11.30;99.90;;;;;;4993632;28;20215;-78
2021/05/14 03:10:49;;;;;;;17.60;15.55;;;11.30;99.90;;;;;;4993736;28;20173;-78
2021/05/14 03:13:15;;;;;;;19.40;15.43;;;11.20;99.90;;;;;;4993282;28;20232;-78
2021/05/14 03:15:41;;;;;;;18.33;14.85;;;11.20;99.90;;;;;;4992046;28;20268;-78
2021/05/14 03:18:06;;;;;;;16.83;14.98;;;11.30;99.90;;;;;;4993336;28;20283;-79
2021/05/14 03:20:32;;;;;;;18.65;14.63;;;11.20;99.90;;;;;;4993437;28;20243;-80
2021/05/14 03:22:58;;;;;;;16.48;14.48;;;11.10;99.90;;;;;;4993654;28;20608;-79
2021/05/14 03:25:24;;;;;;;22.75;15.38;;;11.20;99.90;;;;;;4992078;28;20173;-80
2021/05/14 03:27:50;;;;;;;18.65;14.57;;;11.00;99.90;;;;;;4993163;28;20193;-79
2021/05/14 03:30:16;;;;;;;21.98;15.38;;;10.90;99.90;;;;;;4993341;28;20227;-79
2021/05/14 03:32:43;;;;;;;18.77;14.13;;;10.90;99.90;;;;;;4993355;28;20161;-79
2021/05/14 03:35:09;;;;;;;18.58;15.20;;;11.00;99.90;;;;;;4992212;28;20621;-79
2021/05/14 03:37:35;;;;;;;21.73;15.48;;;11.10;99.90;;;;;;4993033;28;20194;-79
2021/05/14 03:40:14;;;;;;;18.95;15.85;;;11.20;99.90;;;;;;4993310;28;20247;-79
2021/05/14 03:42:40;;;;;;;22.15;16.00;;;11.20;99.90;;;;;;4992983;28;20287;-79
2021/05/14 03:45:06;;;;;;;16.05;13.43;;;11.20;99.90;;;;;;4992998;28;20714;-79
2021/05/14 03:47:32;;;;;;;18.80;14.90;;;11.00;99.90;;;;;;5007110;28;20571;-79
2021/05/14 03:49:59;;;;;;;17.65;15.25;;;11.00;99.90;;;;;;4992760;28;20173;-79
2021/05/14 03:52:24;;;;;;;16.55;11.68;;;10.90;99.90;;;;;;4992890;28;20312;-78
2021/05/14 03:54:50;;;;;;;12.07;10.77;;;11.00;99.90;;;;;;4993003;28;20696;-78
2021/05/14 03:57:16;;;;;;;10.30;9.38;;;11.10;99.90;;;;;;4992777;28;20221;-80
2021/05/14 03:59:41;;;;;;;8.23;5.93;;;11.20;99.90;;;;;;4991588;28;20633;-79
2021/05/14 04:02:09;;;;;;;4.57;4.15;;;11.20;99.90;;;;;;4992694;28;20227;-79
2021/05/14 04:04:34;;;;;;;5.82;3.72;;;11.10;99.90;;;;;;4992673;28;20169;-79
2021/05/14 04:07:03;;;;;;;3.83;3.15;;;11.00;99.90;;;;;;4992941;28;20196;-80
2021/05/14 04:09:34;;;;;;;4.13;3.67;;;11.20;99.90;;;;;;4992731;28;20172;-79
2021/05/14 04:14:44;;;;;;;4.25;3.55;;;11.40;99.90;;;;;;4992743;28;20176;-79
2021/05/14 04:17:09;;;;;;;2.88;2.58;;;11.70;99.90;;;;;;4992212;28;20271;-79
2021/05/14 04:19:35;;;;;;;4.57;2.85;;;11.90;99.90;;;;;;4992660;28;20166;-80
2021/05/14 04:22:03;;;;;;;4.47;2.95;;;12.10;99.90;;;;;;4992683;28;20205;-79
2021/05/14 04:24:29;;;;;;;4.45;3.28;;;12.10;99.90;;;;;;5007712;28;20169;-80
2021/05/14 04:26:56;;;;;;;4.38;3.65;;;12.10;99.90;;;;;;4992570;28;20728;-79
2021/05/14 04:29:22;;;;;;;3.78;3.00;;;12.20;99.90;;;;;;4990939;28;20228;-79
2021/05/14 04:31:48;;;;;;;4.35;2.95;;;11.90;99.90;;;;;;4992611;28;20256;-78
2021/05/14 04:34:16;;;;;;;2.85;2.58;;;11.90;99.90;;;;;;4992687;28;20253;-78
2021/05/14 04:36:42;;;;;;;8.70;3.35;;;11.80;99.90;;;;;;4992490;28;20261;-78
2021/05/14 04:39:08;;;;;;;3.58;2.85;;;11.90;99.90;;;;;;4992472;28;20649;-78
2021/05/14 04:41:34;;;;;;;7.18;3.00;;;12.00;99.90;;;;;;4992520;28;20201;-79
2021/05/14 04:44:00;;;;;;;4.43;2.90;;;12.00;99.90;;;;;;4992329;28;20603;-78
2021/05/14 04:46:26;;;;;;;4.35;2.40;;;12.10;99.90;;;;;;4993432;28;20200;-78
2021/05/14 04:48:52;;;;;;;4.93;2.47;;;12.00;99.90;;;;;;4996456;28;20204;-79
2021/05/14 04:51:18;;;;;;;5.38;2.85;;;12.20;99.90;;;;;;4996133;28;20172;-78
2021/05/14 04:53:45;;;;;;;3.58;2.53;;;12.60;99.90;;;;;;5010988;28;20172;-79
2021/05/14 04:56:13;;;;;;;5.93;3.05;;;12.50;99.90;;;;;;4995853;28;20169;-79
2021/05/14 04:58:38;;;;;;;5.82;2.97;;;12.30;99.90;;;;;;4995543;28;20188;-79
2021/05/14 05:01:04;;;;;;;4.68;2.85;;;12.40;99.90;;;;;;4995529;28;20212;-79
2021/05/14 05:03:30;;;;;;;4.55;2.97;;;12.30;99.90;;;;;;4994779;28;20181;-79
2021/05/14 05:05:56;;;;;;;4.38;2.97;;;12.20;99.90;;;;;;4995487;28;20165;-79
2021/05/14 05:08:21;;;;;;;4.93;3.03;;;12.30;99.90;;;;;;4995471;28;20243;-79
2021/05/14 05:10:47;;;;;;;3.63;2.45;;;12.50;99.90;;;;;;4994448;28;20693;-78
2021/05/14 05:13:13;;;;;;;4.93;3.35;;;12.50;99.90;;;;;;4995406;28;20176;-79
2021/05/14 05:15:38;;;;;;;4.57;2.50;;;12.60;99.90;;;;;;4995524;28;20533;-79
2021/05/14 05:18:04;;;;;;;5.72;3.40;;;12.60;99.90;;;;;;4995036;28;20208;-79
2021/05/14 05:20:30;;;;;;;10.82;2.95;;;12.70;99.90;;;;;;4994848;28;20645;-79
2021/05/14 05:22:55;;;;;;;10.65;2.95;;;12.60;99.90;;;;;;4995259;28;20633;-79
2021/05/14 05:25:21;;;;;;;3.50;3.20;;;12.80;99.90;;;;;;5010602;28;20181;-79
2021/05/14 05:27:47;;;;;;;2.95;2.38;;;12.80;99.90;;;;;;4994936;28;20260;-79
2021/05/14 05:30:13;;;;;;;5.85;2.95;;;13.00;99.90;;;;;;5010332;28;20176;-79
2021/05/14 05:32:39;;;;;;;7.03;3.83;;;13.10;99.90;;;;;;4994215;28;20173;-79
2021/05/14 05:35:05;;;;;;;4.70;3.85;;;13.20;99.90;;;;;;4995185;28;20162;-79
2021/05/14 05:37:31;;;;;;;7.85;4.40;;;13.30;99.90;;;;;;4994859;28;20193;-78
2021/05/14 05:39:56;;;;;;;5.97;4.53;;;13.10;99.90;;;;;;4995081;28;20199;-79
2021/05/14 05:42:22;;;;;;;5.65;5.05;;;13.40;99.90;;;;;;4994876;28;20173;-79
2021/05/14 05:44:47;;;;;;;9.68;5.75;;;13.20;99.90;;;;;;4995392;28;20165;-78
2021/05/14 05:47:13;;;;;;;8.88;6.53;;;13.10;99.90;;;;;;4995041;28;20196;-78
2021/05/14 05:49:39;;;;;;;7.28;4.90;;;13.30;99.90;;;;;;4995281;28;20187;-78
2021/05/14 05:52:05;;;;;;;5.35;4.32;;;12.90;99.90;;;;;;4994989;28;20256;-80
2021/05/14 05:54:30;;;;;;;8.75;6.60;;;13.00;99.90;;;;;;4995026;28;20524;-79
2021/05/14 05:56:57;;;;;;;9.90;6.25;;;13.20;99.90;;;;;;4995039;28;20197;-79
2021/05/14 05:59:24;;;;;;;8.68;6.65;;;13.20;99.90;;;;;;4995302;28;20649;-79
2021/05/14 06:01:50;;;;;;;12.63;7.07;;;13.30;99.90;;;;;;5010479;28;20349;-80
2021/05/14 06:04:16;;;;;;;10.23;7.38;;;13.20;99.90;;;;;;4995483;28;20165;-80
2021/05/14 06:06:41;;;;;;;7.13;6.25;;;13.00;99.90;;;;;;4994674;28;20211;-79
2021/05/14 06:09:07;;;;;;;9.60;6.70;;;13.20;99.90;;;;;;4994673;28;20189;-80
2021/05/14 06:11:33;;;;;;;12.18;6.75;;;13.30;99.90;;;;;;4994105;28;20525;-80
2021/05/14 06:13:59;;;;;;;10.27;7.63;;;13.40;99.90;;;;;;4994687;28;20647;-80
2021/05/14 06:16:25;;;;;;;8.63;5.50;;;13.40;99.90;;;;;;4994296;28;20181;-80
2021/05/14 06:18:57;;;;;;;8.73;5.05;;;13.40;99.90;;;;;;5008981;28;20304;-79
2021/05/14 06:21:22;;;;;;;9.68;4.63;;;13.30;99.90;;;;;;4994057;28;20197;-79
2021/05/14 06:23:48;;;;;;;5.72;4.88;;;13.20;99.90;;;;;;4993826;28;20292;-80
2021/05/14 06:26:15;;;;;;;5.13;4.55;;;13.20;99.90;;;;;;4994065;28;20204;-82
2021/05/14 06:28:41;;;;;;;5.13;4.63;;;13.30;99.90;;;;;;5010117;28;20196;-81
2021/05/14 06:31:06;;;;;;;7.97;4.40;;;13.30;99.90;;;;;;4993933;28;20165;-81
2021/05/14 06:33:32;;;;;;;5.70;4.85;;;13.50;99.90;;;;;;5009202;28;20527;-80
2021/05/14 06:36:01;;;;;;;10.25;5.85;;;13.60;99.90;;;;;;5009194;28;20227;-79
2021/05/14 06:38:26;;;;;;;6.63;5.18;;;13.90;99.90;;;;;;4994136;28;20681;-81
2021/05/14 06:40:53;;;;;;;8.77;5.28;;;13.90;99.90;;;;;;5008626;28;20216;-80
2021/05/14 06:43:19;;;;;;;7.55;5.38;;;14.10;99.90;;;;;;5008899;28;20204;-80
2021/05/14 06:45:44;;;;;;;10.23;5.78;;;14.30;99.90;;;;;;4992455;28;20190;-80
2021/05/14 06:48:13;;;;;;;9.65;5.88;;;14.40;99.90;;;;;;4993549;28;20192;-79
2021/05/14 06:50:40;;;;;;;6.65;5.72;;;14.40;99.90;;;;;;4993617;28;20626;-80
2021/05/14 06:53:06;;;;;;;10.20;5.32;;;14.60;99.90;;;;;;4993073;28;20157;-79
2021/05/14 06:55:34;;;;;;;11.88;6.30;;;14.60;99.90;;;;;;4993628;28;20691;-79
2021/05/14 06:57:59;;;;;;;7.95;5.90;;;14.70;99.90;;;;;;5008517;28;20196;-79
2021/05/14 07:00:25;;;;;;;7.53;6.32;;;14.50;99.90;;;;;;4993275;28;20615;-79
2021/05/14 07:02:50;;;;;;;6.10;5.43;;;14.60;99.90;;;;;;4992012;28;20585;-78
2021/05/14 07:05:17;;;;;;;17.08;7.78;;;14.80;99.90;;;;;;5008372;28;20200;-79
2021/05/14 07:07:43;;;;;;;11.27;5.57;;;14.90;99.90;;;;;;4991250;28;20242;-79
2021/05/14 07:10:10;;;;;;;6.32;5.72;;;15.50;99.90;;;;;;4991691;28;20204;-81
2021/05/14 07:12:36;;;;;;;8.38;5.95;;;16.80;99.90;;;;;;5008010;28;20230;-81
2021/05/14 07:15:08;;;;;;;13.02;6.38;;;17.40;99.90;;;;;;4993823;28;20304;-81
2021/05/14 07:17:35;;;;;;;7.72;4.93;;;17.80;99.90;;;;;;5006067;28;20708;-82
2021/05/14 07:20:00;;;;;;;5.95;4.85;;;18.70;99.90;;;;;;4990785;28;20219;-80
2021/05/14 07:22:26;;;;;;;10.30;5.18;;;18.90;99.90;;;;;;4992192;28;20173;-79
2021/05/14 07:24:52;;;;;;;6.90;6.03;;;19.20;99.90;;;;;;4992762;28;20173;-80
2021/05/14 07:27:18;;;;;;;5.88;5.25;;;19.80;99.90;;;;;;4992230;28;21093;-80
2021/05/14 07:29:44;;;;;;;6.10;5.50;;;20.30;99.90;;;;;;4992009;28;20653;-81
2021/05/14 07:32:10;;;;;;;5.25;4.75;;;20.60;99.90;;;;;;4993025;28;20228;-83
2021/05/14 07:34:36;;;;;;;6.38;4.85;;;20.90;99.90;;;;;;4992787;28;20161;-81
2021/05/14 07:37:02;;;;;;;5.28;4.78;;;21.30;99.90;;;;;;4992373;28;20237;-79
2021/05/14 07:39:28;;;;;;;6.18;4.95;;;21.80;99.90;;;;;;4992240;28;20181;-78
2021/05/14 07:41:54;;;;;;;5.57;4.95;;;21.40;99.90;;;;;;4992664;28;20249;-79
2021/05/14 07:44:21;;;;;;;6.70;4.53;;;20.60;99.90;;;;;;4991183;28;20185;-80
2021/05/14 07:46:48;;;;;;;6.35;4.47;;;20.10;99.90;;;;;;4992719;28;20169;-78
2021/05/14 07:49:14;;;;;;;7.15;4.03;;;19.40;99.90;;;;;;4991829;28;20184;-78
2021/05/14 07:51:40;;;;;;;6.35;5.13;;;18.90;99.90;;;;;;4992105;28;20219;-79
2021/05/14 07:54:05;;;;;;;8.57;3.90;;;18.40;99.90;;;;;;4991895;28;20173;-78
2021/05/14 07:56:31;;;;;;;3.92;3.50;;;18.50;99.90;;;;;;4992115;28;20248;-78
2021/05/14 07:58:57;;;;;;;9.02;3.78;;;18.50;99.90;;;;;;4991676;28;20602;-79
2021/05/14 08:01:22;;;;;;;6.53;4.55;;;18.40;99.90;;;;;;4992077;28;20209;-80
2021/05/14 08:03:48;;;;;;;5.65;4.20;;;18.40;99.90;;;;;;4991938;28;20188;-78
2021/05/14 08:06:13;;;;;;;4.57;4.10;;;18.20;99.90;;;;;;4991732;28;20179;-81
2021/05/14 08:08:41;;;;;;;4.97;3.58;;;18.50;99.90;;;;;;4977507;28;20332;-88
2021/05/14 08:11:08;;;;;;;9.43;4.20;;;18.50;99.90;;;;;;4978066;28;20177;-88
2021/05/14 08:13:34;;;;;;;4.90;3.85;;;18.70;99.90;;;;;;4981378;28;20231;-89
2021/05/14 08:16:09;;;;;;;3.83;3.15;;;18.60;99.90;;;;;;4979965;28;20173;-96
2021/05/14 08:18:34;;;;;;;3.20;2.85;;;18.50;99.90;;;;;;4998885;28;20196;-94
2021/05/14 08:21:00;;;;;;;2.28;2.10;;;18.40;99.90;;;;;;5011475;28;20208;-94
2021/05/14 08:23:26;;;;;;;2.50;2.17;;;18.70;99.90;;;;;;5128712;23;20223;-90
2021/05/14 08:25:52;;;;;;;3.10;2.75;;;19.00;99.90;;;;;;5018369;28;20636;-92
2021/05/14 08:28:19;;;;;;;3.63;2.65;;;19.20;99.90;;;;;;5017468;28;20222;-92
2021/05/14 08:30:46;;;;;;;3.60;2.70;;;19.20;99.90;;;;;;5017689;28;20199;-91
2021/05/14 08:33:11;;;;;;;2.67;2.42;;;19.10;99.90;;;;;;5017623;28;20214;-91
2021/05/14 08:35:38;;;;;;;2.47;2.28;;;18.80;99.90;;;;;;5018480;28;20259;-92
2021/05/14 08:38:05;;;;;;;3.70;2.72;;;18.40;99.90;;;;;;5021109;28;20196;-93
2021/05/14 08:40:32;;;;;;;2.63;2.40;;;18.40;99.90;;;;;;5033035;28;20184;-84
2021/05/14 08:42:58;;;;;;;3.88;3.00;;;18.60;99.90;;;;;;5038193;28;20199;-91
2021/05/14 08:45:24;;;;;;;5.15;2.67;;;18.70;99.90;;;;;;5029189;28;20181;-80
2021/05/14 08:47:52;;;;;;;3.75;2.47;;;18.80;99.90;;;;;;5014851;28;20196;-83
2021/05/14 08:50:18;;;;;;;5.18;2.67;;;18.70;99.90;;;;;;5015400;28;20302;-79
2021/05/14 08:52:45;;;;;;;2.97;2.05;;;18.60;99.90;;;;;;5015405;28;20688;-80
2021/05/14 08:55:12;;;;;;;3.40;2.25;;;18.70;99.90;;;;;;5015302;28;20163;-80
2021/05/14 08:57:39;;;;;;;3.65;2.92;;;18.70;99.90;;;;;;5014948;28;20197;-78
2021/05/14 09:00:07;;;;;;;3.58;3.00;;;18.60;99.90;;;;;;5015564;28;20322;-79
2021/05/14 09:02:36;;;;;;;3.15;2.85;;;18.70;99.90;;;;;;5014735;28;20172;-79
2021/05/14 09:05:32;;;;;;;4.10;3.70;;;18.70;99.90;;;;;;5014996;28;20168;-79
2021/05/14 09:07:58;;;;;;;8.18;4.53;;;18.50;99.90;;;;;;5015001;28;20555;-79
2021/05/14 09:10:26;;;;;;;7.80;4.65;;;18.40;99.90;;;;;;5015308;28;20168;-79
2021/05/14 09:12:52;;;;;;;7.43;5.00;;;18.40;99.90;;;;;;5014911;28;20222;-80
2021/05/14 09:15:27;;;;;;;10.60;5.53;;;18.00;99.90;;;;;;5015261;28;20179;-81
2021/05/14 09:18:10;;;;;;;11.50;5.78;;;17.80;99.90;;;;;;5014543;28;20191;-79
2021/05/14 09:20:45;;;;;;;5.72;5.03;;;17.70;99.90;;;;;;5013567;28;20231;-81
2021/05/14 09:23:16;;;;;;;4.97;4.53;;;17.60;99.90;;;;;;5014658;28;20784;-79
2021/05/14 09:26:01;;;;;;;5.45;5.03;;;17.60;99.90;;;;;;5015153;28;20180;-78
2021/05/14 09:28:32;;;;;;;8.15;5.05;;;17.60;99.90;;;;;;5015148;28;20184;-81
2021/05/14 09:31:18;;;;;;;5.88;4.85;;;17.60;99.90;;;;;;5013986;28;20176;-80
2021/05/14 09:33:52;;;;;;;7.25;5.90;;;17.50;99.90;;;;;;5013700;28;20210;-80
2021/05/14 09:36:23;;;;;;;5.68;5.20;;;17.70;99.90;;;;;;5014598;28;20169;-80
2021/05/14 09:39:03;;;;;;;6.25;5.68;;;18.00;99.90;;;;;;5013962;28;20193;-81
2021/05/14 09:41:43;;;;;;;5.55;4.78;;;18.70;99.90;;;;;;5013492;28;20219;-79
2021/05/14 09:44:23;;;;;;;7.20;4.18;;;18.90;99.90;;;;;;5007923;28;20291;-79
2021/05/14 09:46:59;;;;;;;5.53;5.03;;;19.30;99.90;;;;;;5012839;28;20183;-79
2021/05/14 09:49:27;;;;;;;4.25;3.85;;;19.70;99.90;;;;;;5014357;28;20172;-81
2021/05/14 09:52:00;;;;;;;5.05;4.10;;;19.80;99.90;;;;;;5013949;28;20171;-82
2021/05/14 09:54:37;;;;;;;4.03;3.42;;;19.90;99.90;;;;;;4992949;28;20651;-82
2021/05/14 09:57:35;;;;;;;6.43;4.13;;;20.10;99.90;;;;;;4994156;28;20208;-79
2021/05/14 10:00:05;;;;;;;3.80;3.33;;;20.20;99.90;;;;;;4993825;28;20252;-81
2021/05/14 10:02:37;;;;;;;3.60;3.30;;;20.60;99.90;;;;;;4992659;28;20255;-80
2021/05/14 10:05:05;;;;;;;3.13;2.80;;;20.70;99.90;;;;;;4992841;28;20161;-81
2021/05/14 10:07:32;;;;;;;3.22;2.80;;;20.60;99.90;;;;;;4993271;28;20221;-81
2021/05/14 10:10:00;;;;;;;5.35;3.70;;;20.50;99.90;;;;;;4994720;28;20174;-81
2021/05/14 10:12:26;;;;;;;4.32;2.92;;;20.70;99.90;;;;;;4994684;28;20178;-81
2021/05/14 10:14:52;;;;;;;3.85;2.60;;;20.30;99.90;;;;;;4993440;28;20177;-81
2021/05/14 10:17:18;;;;;;;3.95;3.17;;;20.60;99.90;;;;;;4992238;28;20232;-81
2021/05/14 10:19:47;;;;;;;4.93;2.70;;;20.30;99.90;;;;;;4992841;28;20180;-81
2021/05/14 10:22:14;;;;;;;2.03;1.88;;;20.20;99.90;;;;;;4994006;28;20280;-81
2021/05/14 10:24:43;;;;;;;1.90;1.60;;;20.40;99.90;;;;;;4992784;28;20165;-81
2021/05/14 10:27:14;;;;;;;3.38;2.50;;;20.90;99.90;;;;;;4994075;28;20193;-81
2021/05/14 10:29:46;;;;;;;4.63;3.22;;;21.20;99.90;;;;;;4994200;28;20260;-81
2021/05/14 10:32:13;;;;;;;2.92;2.63;;;21.30;99.90;;;;;;4994350;28;20161;-81
2021/05/14 10:34:38;;;;;;;3.95;2.20;;;21.50;99.90;;;;;;4994289;28;20177;-81
2021/05/14 10:37:05;;;;;;;3.75;3.00;;;21.40;99.90;;;;;;4994016;28;20518;-81
2021/05/14 10:39:39;;;;;;;5.60;3.75;;;21.20;99.90;;;;;;4994355;28;20529;-83
2021/05/14 10:42:11;;;;;;;2.97;2.47;;;21.10;99.90;;;;;;4992966;28;20234;-81
2021/05/14 10:44:45;;;;;;;3.08;2.53;;;21.30;99.90;;;;;;4993358;28;20223;-81
2021/05/14 10:47:25;;;;;;;3.35;2.45;;;21.30;99.90;;;;;;4993719;28;20280;-81
2021/05/14 10:49:59;;;;;;;9.07;3.65;;;21.30;99.90;;;;;;4993678;28;20176;-81
2021/05/14 10:52:27;;;;;;;3.33;2.92;;;21.20;99.90;;;;;;4993808;28;20175;-82
2021/05/14 10:54:53;;;;;;;3.20;2.40;;;21.00;99.90;;;;;;4992236;28;20176;-80
2021/05/14 10:57:44;;;;;;;2.30;2.00;;;20.80;99.90;;;;;;4992108;28;20193;-83
2021/05/14 11:00:25;;;;;;;3.03;2.45;;;20.40;99.90;;;;;;4992476;28;20208;-81
2021/05/14 11:03:10;;;;;;;3.17;2.90;;;20.00;99.90;;;;;;4992482;28;20184;-82
2021/05/14 11:05:38;;;;;;;2.78;2.58;;;19.80;99.90;;;;;;4992302;28;20177;-82
2021/05/14 11:08:04;;;;;;;2.47;2.30;;;19.90;99.90;;;;;;4994021;28;20675;-82
2021/05/14 11:10:35;;;;;;;2.78;2.45;;;19.80;99.90;;;;;;4993767;28;20280;-82
2021/05/14 11:13:36;;;;;;;6.22;2.85;;;19.60;99.90;;;;;;4993427;28;20656;-81
2021/05/14 11:16:29;;;;;;;2.50;2.30;;;19.30;99.90;;;;;;4993614;28;20165;-82
2021/05/14 11:18:55;;;;;;;2.50;2.17;;;19.40;99.90;;;;;;4991732;28;20220;-80
2021/05/14 11:21:21;;;;;;;3.05;2.50;;;19.40;99.90;;;;;;4993208;28;20208;-83
2021/05/14 11:23:47;;;;;;;2.13;1.70;;;19.40;99.90;;;;;;4993572;28;20184;-80
2021/05/14 11:26:19;;;;;;;5.15;1.88;;;19.40;99.90;;;;;;4993312;28;20719;-83
2021/05/14 11:28:47;;;;;;;2.85;2.10;;;19.20;99.90;;;;;;4994181;28;20696;-82
2021/05/14 11:31:20;;;;;;;2.03;1.67;;;19.20;99.90;;;;;;4993083;28;20676;-79
2021/05/14 11:33:48;;;;;;;4.38;1.85;;;19.20;99.90;;;;;;4992779;28;20177;-80
2021/05/14 11:36:13;;;;;;;1.90;1.80;;;19.40;99.90;;;;;;4992326;28;20171;-79
2021/05/14 11:38:51;;;;;;;3.10;2.17;;;19.50;99.90;;;;;;4992428;28;20264;-78
2021/05/14 11:41:27;;;;;;;1.40;1.30;;;19.50;99.90;;;;;;4992905;28;20204;-80
2021/05/14 11:44:02;;;;;;;3.65;2.28;;;19.60;99.90;;;;;;4992609;28;20169;-80
2021/05/14 11:46:33;;;;;;;3.30;2.10;;;19.30;99.90;;;;;;4993024;28;20161;-79
2021/05/14 11:49:06;;;;;;;5.10;2.30;;;19.00;99.90;;;;;;4992764;28;20219;-79
2021/05/14 11:51:33;;;;;;;3.63;2.47;;;18.70;99.90;;;;;;4992959;28;20161;-79
2021/05/14 11:54:12;;;;;;;5.57;2.38;;;18.80;99.90;;;;;;4992684;28;20169;-79
2021/05/14 11:56:38;;;;;;;2.40;2.20;;;18.80;99.90;;;;;;4992194;28;20624;-80
2021/05/14 11:59:03;;;;;;;3.47;2.00;;;18.70;99.90;;;;;;4991446;28;20211;-80
2021/05/14 12:01:40;;;;;;;3.60;1.65;;;18.90;99.90;;;;;;4992561;28;20680;-80
2021/05/14 12:04:06;;;;;;;3.17;1.33;;;19.40;99.90;;;;;;4992784;28;20308;-80
2021/05/14 12:06:32;;;;;;;2.45;1.70;;;19.70;99.90;;;;;;4992769;28;20174;-81
2021/05/14 12:08:58;;;;;;;1.98;1.52;;;20.00;99.90;;;;;;4992687;28;20711;-80
2021/05/14 12:11:24;;;;;;;1.83;1.70;;;20.10;99.90;;;;;;4992403;28;20268;-78
2021/05/14 12:13:49;;;;;;;4.00;1.92;;;19.80;99.90;;;;;;4992564;28;20162;-78
2021/05/14 12:16:18;;;;;;;1.10;1.10;;;20.20;99.90;;;;;;4992933;28;20525;-79
2021/05/14 12:18:49;;;;;;;1.70;1.40;;;20.30;99.90;;;;;;4992689;28;20185;-78
2021/05/14 12:21:36;;;;;;;4.90;2.35;;;20.40;99.90;;;;;;4991386;28;20212;-78
2021/05/14 12:24:13;;;;;;;3.13;2.35;;;20.10;99.90;;;;;;4992474;28;20200;-78
2021/05/14 12:26:39;;;;;;;5.25;1.70;;;19.90;99.90;;;;;;4992540;28;20216;-78
2021/05/14 12:29:20;;;;;;;4.85;1.80;;;20.10;99.90;;;;;;4990995;28;20263;-80
2021/05/14 12:31:54;;;;;;;1.80;1.63;;;20.10;99.90;;;;;;4991962;28;20232;-79
2021/05/14 12:34:22;;;;;;;1.92;1.52;;;20.20;99.90;;;;;;4992223;28;20197;-79
2021/05/14 12:36:55;;;;;;;2.72;2.53;;;20.10;99.90;;;;;;4992440;28;20172;-80
2021/05/14 12:39:23;;;;;;;1.80;1.70;;;20.50;99.90;;;;;;4992460;28;20166;-80
2021/05/14 12:41:49;;;;;;;1.83;1.35;;;20.80;99.90;;;;;;4992228;28;20201;-79
2021/05/14 12:44:25;;;;;;;3.95;2.17;;;21.10;99.90;;;;;;4992354;28;20169;-79
2021/05/14 12:47:13;;;;;;;3.58;1.70;;;21.10;99.90;;;;;;4992220;28;20165;-79